createdAt,value
2022-09-15T00:01:31.372Z,1.83
2022-09-15T00:03:59.562Z,1.73
2022-09-15T00:06:27.912Z,1.40
2022-09-15T00:08:58.215Z,1.92
2022-09-15T00:11:28.842Z,1.75
2022-09-15T00:13:59.731Z,1.77
2022-09-15T00:16:31.382Z,1.63
2022-09-15T00:19:00.777Z,1.77
2022-09-15T00:21:31.039Z,2.15
2022-09-15T00:24:01.822Z,1.67
2022-09-15T00:26:31.318Z,2.10
2022-09-15T00:29:01.380Z,1.90
2022-09-15T00:31:30.947Z,1.90
2022-09-15T00:34:02.907Z,1.70
2022-09-15T00:36:31.989Z,1.73
2022-09-15T00:39:02.220Z,2.00
2022-09-15T00:41:30.757Z,1.80
2022-09-15T00:44:02.210Z,1.83
2022-09-15T00:46:32.320Z,1.75
2022-09-15T00:49:06.916Z,1.90
2022-09-15T00:51:40.337Z,1.88
2022-09-15T00:54:14.171Z,2.10
2022-09-15T00:56:44.283Z,1.45
2022-09-15T00:59:16.395Z,1.85
2022-09-15T01:01:47.245Z,1.73
2022-09-15T01:04:17.280Z,1.83
2022-09-15T01:06:49.149Z,1.98
2022-09-15T01:09:23.362Z,1.80
2022-09-15T01:11:51.700Z,1.80
2022-09-15T01:14:20.340Z,2.10
2022-09-15T01:16:57.948Z,1.60
2022-09-15T01:19:52.086Z,1.70
2022-09-15T01:22:33.396Z,2.10
2022-09-15T01:25:10.169Z,1.60
2022-09-15T01:28:18.653Z,1.75
2022-09-15T01:30:52.442Z,1.70
2022-09-15T01:33:31.412Z,1.75
2022-09-15T01:36:06.265Z,1.65
2022-09-15T01:39:01.695Z,1.90
2022-09-15T01:41:36.179Z,1.80
2022-09-15T01:44:08.501Z,2.22
2022-09-15T01:46:47.356Z,1.80
2022-09-15T01:49:18.462Z,1.95
2022-09-15T01:51:50.015Z,1.70
2022-09-15T01:54:20.597Z,1.98
2022-09-15T01:56:49.107Z,1.70
2022-09-15T01:59:17.425Z,1.75
2022-09-15T02:01:53.321Z,1.90
2022-09-15T02:04:30.137Z,1.73
2022-09-15T02:07:04.517Z,2.17
2022-09-15T02:09:36.860Z,1.87
2022-09-15T02:12:11.977Z,1.88
2022-09-15T02:14:49.331Z,1.75
2022-09-15T02:17:22.340Z,1.95
2022-09-15T02:19:52.086Z,1.65
2022-09-15T02:22:25.414Z,2.15
2022-09-15T02:24:59.467Z,1.60
2022-09-15T02:27:31.055Z,1.98
2022-09-15T02:30:09.874Z,2.05
2022-09-15T02:32:42.183Z,1.75
2022-09-15T02:35:12.366Z,1.75
2022-09-15T02:37:40.528Z,2.00
2022-09-15T02:40:10.342Z,1.88
2022-09-15T02:42:39.160Z,1.88
2022-09-15T02:45:09.166Z,1.98
2022-09-15T02:47:38.608Z,2.08
2022-09-15T02:50:08.334Z,1.92
2022-09-15T02:52:36.826Z,2.50
2022-09-15T02:55:05.606Z,2.22
2022-09-15T02:57:34.071Z,2.15
2022-09-15T03:00:15.240Z,1.85
2022-09-15T03:02:47.089Z,2.30
2022-09-15T03:05:17.927Z,2.60
2022-09-15T03:07:46.513Z,2.15
2022-09-15T03:10:15.057Z,2.22
2022-09-15T03:12:45.415Z,2.40
2022-09-15T03:15:15.855Z,2.63
2022-09-15T03:17:47.020Z,2.60
2022-09-15T03:20:17.123Z,2.35
2022-09-15T03:22:45.770Z,2.45
2022-09-15T03:25:14.199Z,2.40
2022-09-15T03:27:43.125Z,2.90
2022-09-15T03:30:12.191Z,2.22
2022-09-15T03:32:40.249Z,2.47
2022-09-15T03:35:11.346Z,2.03
2022-09-15T03:37:39.335Z,2.50
2022-09-15T03:40:11.148Z,2.50
2022-09-15T03:42:39.380Z,2.38
2022-09-15T03:45:08.366Z,2.28
2022-09-15T03:47:36.867Z,1.98
2022-09-15T03:50:06.795Z,2.10
2022-09-15T03:52:36.716Z,2.13
2022-09-15T03:55:05.757Z,2.10
2022-09-15T03:57:34.211Z,1.80
2022-09-15T04:00:02.384Z,1.98
2022-09-15T04:02:30.438Z,1.77
2022-09-15T04:04:58.941Z,1.73
2022-09-15T04:07:27.170Z,1.73
2022-09-15T04:09:57.329Z,1.67
2022-09-15T04:12:25.455Z,1.45
2022-09-15T04:14:54.057Z,1.60
2022-09-15T04:17:22.577Z,1.58
2022-09-15T04:19:51.173Z,1.38
2022-09-15T04:22:19.269Z,1.92
2022-09-15T04:24:48.129Z,1.55
2022-09-15T04:27:18.450Z,2.10
2022-09-15T04:29:47.099Z,2.08
2022-09-15T04:32:15.109Z,1.60
2022-09-15T04:34:43.597Z,1.52
2022-09-15T04:37:11.906Z,1.50
2022-09-15T04:39:40.675Z,1.70
2022-09-15T04:42:10.349Z,1.42
2022-09-15T04:44:40.500Z,1.63
2022-09-15T04:47:08.488Z,1.80
2022-09-15T04:49:36.982Z,1.75
2022-09-15T04:52:09.045Z,1.50
2022-09-15T04:54:38.170Z,1.60
2022-09-15T04:57:06.692Z,1.40
2022-09-15T04:59:34.889Z,1.75
2022-09-15T05:02:04.961Z,1.90
2022-09-15T05:04:33.602Z,1.92
2022-09-15T05:07:01.615Z,1.67
2022-09-15T05:09:31.421Z,1.80
2022-09-15T05:11:59.439Z,1.63
2022-09-15T05:14:27.912Z,1.60
2022-09-15T05:16:56.336Z,1.83
2022-09-15T05:19:25.988Z,1.50
2022-09-15T05:21:54.497Z,1.98
2022-09-15T05:24:22.618Z,1.65
2022-09-15T05:26:51.662Z,1.77
2022-09-15T05:29:20.116Z,1.77
2022-09-15T05:31:48.187Z,1.40
2022-09-15T05:34:16.968Z,1.52
2022-09-15T05:36:46.331Z,1.52
2022-09-15T05:39:14.820Z,1.45
2022-09-15T05:41:42.881Z,1.95
2022-09-15T05:44:12.227Z,2.30
2022-09-15T05:46:40.845Z,1.52
2022-09-15T05:49:09.535Z,1.58
2022-09-15T05:51:37.858Z,1.73
2022-09-15T05:54:08.207Z,1.90
2022-09-15T05:56:36.206Z,1.88
2022-09-15T05:59:04.705Z,1.83
2022-09-15T06:01:33.315Z,1.70
2022-09-15T06:04:01.813Z,1.77
2022-09-15T06:06:32.250Z,2.00
2022-09-15T06:09:01.753Z,2.10
2022-09-15T06:11:34.939Z,2.03
2022-09-15T06:14:04.425Z,2.08
2022-09-15T06:16:34.469Z,1.98
2022-09-15T06:19:03.653Z,2.20
2022-09-15T06:21:33.657Z,2.28
2022-09-15T06:24:03.489Z,2.70
2022-09-15T06:26:33.312Z,2.45
2022-09-15T06:29:03.703Z,2.72
2022-09-15T06:31:33.913Z,2.38
2022-09-15T06:34:04.063Z,2.20
2022-09-15T06:36:33.125Z,2.38
2022-09-15T06:39:01.642Z,2.40
2022-09-15T06:41:47.070Z,2.35
2022-09-15T06:44:20.276Z,2.28
2022-09-15T06:46:49.378Z,2.28
2022-09-15T06:49:17.446Z,2.10
2022-09-15T06:51:46.019Z,1.90
2022-09-15T06:54:16.014Z,1.60
2022-09-15T06:56:44.631Z,1.60
2022-09-15T06:59:14.039Z,1.10
2022-09-15T07:01:44.164Z,1.17
2022-09-15T07:04:13.409Z,1.00
2022-09-15T07:06:41.412Z,1.02
2022-09-15T07:09:09.914Z,1.10
2022-09-15T07:11:38.394Z,0.63
2022-09-15T07:14:07.481Z,0.80
2022-09-15T07:16:35.600Z,0.50
2022-09-15T07:19:06.219Z,0.80
2022-09-15T07:21:36.150Z,0.80
2022-09-15T07:24:07.205Z,0.70
2022-09-15T07:26:35.728Z,0.57
2022-09-15T07:29:07.473Z,0.50
2022-09-15T07:31:37.509Z,0.30
2022-09-15T07:34:08.639Z,0.28
2022-09-15T07:36:37.360Z,0.20
2022-09-15T07:39:06.598Z,0.30
2022-09-15T07:41:35.497Z,0.80
2022-09-15T07:44:03.951Z,0.50
2022-09-15T07:46:33.695Z,0.20
2022-09-15T07:49:03.592Z,0.20
2022-09-15T07:51:33.158Z,0.32
2022-09-15T07:54:02.187Z,0.15
2022-09-15T07:56:30.658Z,0.38
2022-09-15T07:58:58.875Z,0.50
2022-09-15T08:01:27.431Z,0.32
2022-09-15T08:03:56.078Z,0.22
2022-09-15T08:06:26.987Z,0.30
2022-09-15T08:09:00.452Z,0.22
2022-09-15T08:11:29.519Z,0.20
2022-09-15T08:13:57.591Z,0.50
2022-09-15T08:16:26.694Z,0.40
2022-09-15T08:18:55.774Z,0.47
2022-09-15T08:21:24.265Z,0.70
2022-09-15T08:23:54.093Z,0.45
2022-09-15T08:26:23.901Z,0.60
2022-09-15T08:28:52.515Z,0.65
2022-09-15T08:31:21.255Z,0.40
2022-09-15T08:33:51.744Z,0.55
2022-09-15T08:36:20.458Z,0.60
2022-09-15T08:38:48.725Z,0.32
2022-09-15T08:41:21.385Z,0.60
2022-09-15T08:43:57.030Z,0.40
2022-09-15T08:46:31.647Z,0.47
2022-09-15T08:49:04.915Z,0.35
2022-09-15T08:51:41.928Z,0.40
2022-09-15T08:54:19.648Z,0.57
2022-09-15T08:56:49.362Z,0.20
2022-09-15T08:59:21.108Z,0.35
2022-09-15T09:02:00.719Z,0.30
2022-09-15T09:04:42.489Z,0.25
2022-09-15T09:07:23.847Z,0.10
2022-09-15T09:09:58.359Z,0.30
2022-09-15T09:12:41.080Z,0.40
2022-09-15T09:15:24.825Z,0.25
2022-09-15T09:18:13.238Z,0.30
2022-09-15T09:20:52.640Z,0.20
2022-09-15T09:23:26.544Z,0.30
2022-09-15T09:25:56.497Z,0.10
2022-09-15T09:28:31.889Z,0.20
2022-09-15T09:31:08.582Z,0.30
2022-09-15T09:33:53.444Z,0.40
2022-09-15T09:36:22.368Z,0.40
2022-09-15T09:38:51.257Z,0.52
2022-09-15T09:41:22.728Z,0.30
2022-09-15T09:43:51.633Z,0.10
2022-09-15T09:46:22.282Z,0.28
2022-09-15T09:48:56.776Z,0.45
2022-09-15T09:51:37.463Z,0.52
2022-09-15T09:54:11.581Z,0.30
2022-09-15T09:56:40.329Z,0.60
2022-09-15T09:59:34.886Z,0.47
2022-09-15T10:02:18.879Z,0.73
2022-09-15T10:04:48.871Z,0.60
2022-09-15T10:07:19.929Z,0.60
2022-09-15T10:09:57.185Z,0.70
2022-09-15T10:12:32.424Z,0.73
2022-09-15T10:15:03.522Z,0.70
2022-09-15T10:17:43.680Z,0.75
2022-09-15T10:20:33.692Z,0.60
2022-09-15T10:23:08.142Z,0.80
2022-09-15T10:25:59.621Z,0.90
2022-09-15T10:28:29.370Z,0.82
2022-09-15T10:31:03.953Z,1.10
2022-09-15T10:33:35.403Z,1.35
2022-09-15T10:36:06.348Z,1.20
2022-09-15T10:38:43.438Z,1.00
2022-09-15T10:41:31.088Z,0.85
2022-09-15T10:44:24.017Z,1.00
2022-09-15T10:47:03.603Z,0.98
2022-09-15T10:49:46.744Z,0.88
2022-09-15T10:52:27.042Z,1.40
2022-09-15T10:55:09.618Z,1.60
2022-09-15T10:58:00.004Z,1.80
2022-09-15T11:00:35.075Z,1.65
2022-09-15T11:03:28.206Z,1.70
2022-09-15T11:06:08.606Z,1.48
2022-09-15T11:09:03.927Z,1.52
2022-09-15T11:11:39.955Z,1.60
2022-09-15T11:14:23.098Z,2.08
2022-09-15T11:17:02.463Z,1.88
2022-09-15T11:19:45.485Z,1.70
2022-09-15T11:22:16.732Z,1.80
2022-09-15T11:24:49.861Z,1.80
2022-09-15T11:27:22.456Z,1.50
2022-09-15T11:30:03.119Z,2.00
2022-09-15T11:32:35.389Z,2.10
2022-09-15T11:35:19.549Z,1.73
2022-09-15T11:37:51.733Z,1.60
2022-09-15T11:40:24.682Z,1.80
2022-09-15T11:42:58.669Z,1.63
2022-09-15T11:45:32.181Z,1.65
2022-09-15T11:48:05.430Z,1.60
2022-09-15T11:50:37.522Z,2.38
2022-09-15T11:53:10.905Z,1.55
2022-09-15T11:55:44.285Z,1.77
2022-09-15T11:58:22.280Z,1.98
2022-09-15T12:00:56.307Z,1.80
2022-09-15T12:03:32.375Z,1.52
2022-09-15T12:06:04.388Z,1.83
2022-09-15T12:08:37.956Z,2.03
2022-09-15T12:11:11.878Z,2.00
2022-09-15T12:13:42.770Z,2.00
2022-09-15T12:16:13.338Z,2.20
2022-09-15T12:18:47.589Z,2.20
2022-09-15T12:21:23.770Z,2.20
2022-09-15T12:23:58.935Z,2.72
2022-09-15T12:26:28.965Z,2.25
2022-09-15T12:29:02.429Z,2.55
2022-09-15T12:31:42.110Z,2.38
2022-09-15T12:34:36.275Z,2.35
2022-09-15T12:37:15.340Z,2.10
2022-09-15T12:39:44.509Z,2.50
2022-09-15T12:42:20.812Z,2.17
2022-09-15T12:44:53.939Z,2.28
2022-09-15T12:47:32.258Z,2.58
2022-09-15T12:50:24.215Z,2.33
2022-09-15T12:52:54.964Z,2.22
2022-09-15T12:55:26.853Z,2.22
2022-09-15T12:57:58.682Z,2.60
2022-09-15T13:00:45.551Z,2.05
2022-09-15T13:03:31.230Z,2.25
2022-09-15T13:06:18.257Z,2.40
2022-09-15T13:08:54.808Z,2.55
2022-09-15T13:11:38.010Z,2.47
2022-09-15T13:14:24.592Z,2.08
2022-09-15T13:16:57.174Z,2.00
2022-09-15T13:19:32.640Z,2.35
2022-09-15T13:22:07.870Z,2.30
2022-09-15T13:24:43.786Z,2.00
2022-09-15T13:27:13.710Z,2.00
2022-09-15T13:29:47.940Z,1.98
2022-09-15T13:32:39.592Z,2.03
2022-09-15T13:35:38.868Z,1.95
2022-09-15T13:38:47.134Z,2.00
2022-09-15T13:41:54.223Z,2.13
2022-09-15T13:44:46.445Z,1.92
2022-09-15T13:47:33.303Z,2.13
2022-09-15T13:50:12.186Z,1.70
2022-09-15T13:53:35.013Z,1.88
2022-09-15T13:56:10.060Z,1.75
2022-09-15T13:59:00.923Z,2.25
2022-09-15T14:01:31.829Z,2.15
2022-09-15T14:04:02.491Z,2.15
2022-09-15T14:06:36.647Z,1.80
2022-09-15T14:09:11.462Z,1.90
2022-09-15T14:11:41.150Z,1.75
2022-09-15T14:14:18.951Z,1.60
2022-09-15T14:16:51.347Z,1.70
2022-09-15T14:19:31.216Z,1.80
2022-09-15T14:21:59.762Z,1.65
2022-09-15T14:24:31.132Z,1.60
2022-09-15T14:27:02.969Z,1.63
2022-09-15T14:29:31.568Z,1.90
2022-09-15T14:32:04.329Z,2.08
2022-09-15T14:34:36.980Z,2.15
2022-09-15T14:37:07.992Z,2.00
2022-09-15T14:39:40.273Z,1.85
2022-09-15T14:42:21.843Z,1.85
2022-09-15T14:47:40.651Z,1.85
2022-09-15T14:50:13.682Z,2.00
2022-09-15T14:52:45.186Z,1.80
2022-09-15T14:55:18.931Z,1.70
2022-09-15T14:57:56.756Z,1.85
2022-09-15T15:00:29.010Z,1.83
2022-09-15T15:03:05.976Z,1.80
2022-09-15T15:05:37.018Z,1.80
2022-09-15T15:08:09.504Z,1.83
2022-09-15T15:10:39.806Z,1.58
2022-09-15T15:13:11.286Z,1.45
2022-09-15T15:15:40.850Z,1.50
2022-09-15T15:18:32.147Z,1.50
2022-09-15T15:21:00.345Z,1.20
2022-09-15T15:23:29.309Z,1.40
2022-09-15T15:26:25.691Z,1.67
2022-09-15T15:28:54.283Z,1.35
2022-09-15T15:31:24.389Z,1.33
2022-09-15T15:33:56.302Z,1.30
2022-09-15T15:36:26.719Z,1.70
2022-09-15T15:38:56.681Z,1.20
2022-09-15T15:41:28.988Z,1.30
2022-09-15T15:44:03.504Z,1.50
2022-09-15T15:46:52.730Z,1.73
2022-09-15T15:49:22.328Z,1.70
2022-09-15T15:51:50.823Z,1.30
2022-09-15T15:54:19.332Z,1.50
2022-09-15T15:56:49.512Z,1.15
2022-09-15T15:59:18.751Z,1.40
2022-09-15T16:01:50.354Z,1.70
2022-09-15T16:04:18.864Z,1.92
2022-09-15T16:06:47.497Z,2.33
2022-09-15T16:09:18.784Z,1.83
2022-09-15T16:11:48.641Z,2.10
2022-09-15T16:14:17.184Z,2.20
2022-09-15T16:16:45.326Z,2.40
2022-09-15T16:19:14.211Z,1.90
2022-09-15T16:21:43.191Z,2.42
2022-09-15T16:24:14.758Z,2.33
2022-09-15T16:26:43.067Z,2.05
2022-09-15T16:29:13.226Z,2.30
2022-09-15T16:31:43.296Z,2.33
2022-09-15T16:34:14.277Z,1.95
2022-09-15T16:36:42.752Z,1.80
2022-09-15T16:39:11.022Z,2.03
2022-09-15T16:41:40.742Z,2.40
2022-09-15T16:44:19.105Z,1.88
2022-09-15T16:46:47.483Z,2.05
2022-09-15T16:49:16.029Z,2.50
2022-09-15T16:51:44.527Z,2.20
2022-09-15T16:54:18.264Z,2.08
2022-09-15T16:56:47.055Z,2.40
2022-09-15T16:59:16.940Z,2.05
2022-09-15T17:01:45.154Z,2.13
2022-09-15T17:04:15.996Z,2.10
2022-09-15T17:06:44.784Z,2.10
2022-09-15T17:09:12.865Z,2.20
2022-09-15T17:11:41.515Z,2.13
2022-09-15T17:14:13.912Z,2.55
2022-09-15T17:16:47.184Z,2.30
2022-09-15T17:19:15.272Z,2.90
2022-09-15T17:21:43.759Z,1.95
2022-09-15T17:24:12.409Z,3.78
2022-09-15T17:26:41.464Z,3.50
2022-09-15T17:29:09.877Z,2.50
2022-09-15T17:31:38.013Z,2.33
2022-09-15T17:34:11.538Z,3.45
2022-09-15T17:36:39.642Z,2.53
2022-09-15T17:39:07.685Z,2.60
2022-09-15T17:41:36.424Z,2.65
2022-09-15T17:44:04.479Z,2.90
2022-09-15T17:46:32.633Z,3.67
2022-09-15T17:49:01.099Z,3.97
2022-09-15T17:51:30.940Z,2.95
2022-09-15T17:53:58.985Z,2.78
2022-09-15T17:56:27.436Z,2.90
2022-09-15T17:58:55.568Z,2.65
2022-09-15T18:01:23.936Z,2.58
2022-09-15T18:03:52.070Z,2.60
2022-09-15T18:06:20.579Z,2.40
2022-09-15T18:08:50.455Z,2.88
2022-09-15T18:11:18.563Z,2.88
2022-09-15T18:13:46.594Z,2.45
2022-09-15T18:16:15.921Z,2.72
2022-09-15T18:18:44.425Z,3.15
2022-09-15T18:21:24.592Z,3.30
2022-09-15T18:23:55.241Z,3.53
2022-09-15T18:26:26.359Z,3.55
2022-09-15T18:28:56.381Z,3.35
2022-09-15T18:31:24.608Z,3.05
2022-09-15T18:33:53.675Z,2.75
2022-09-15T18:36:21.803Z,3.67
2022-09-15T18:38:50.344Z,3.00
2022-09-15T18:41:20.286Z,3.25
2022-09-15T18:43:49.041Z,3.15
2022-09-15T18:46:17.740Z,2.60
2022-09-15T18:48:46.515Z,2.90
2022-09-15T18:51:23.827Z,3.40
2022-09-15T18:53:54.368Z,2.90
2022-09-15T18:56:24.565Z,3.20
2022-09-15T18:58:54.372Z,3.10
2022-09-15T19:01:23.458Z,2.95
2022-09-15T19:03:51.675Z,3.20
2022-09-15T19:06:20.161Z,3.35
2022-09-15T19:08:48.986Z,3.45
2022-09-15T19:11:17.774Z,2.70
2022-09-15T19:13:47.620Z,2.88
2022-09-15T19:16:16.200Z,3.40
2022-09-15T19:18:46.765Z,2.85
2022-09-15T19:21:15.002Z,3.10
2022-09-15T19:23:43.611Z,3.35
2022-09-15T19:26:13.729Z,2.85
2022-09-15T19:28:42.471Z,3.13
2022-09-15T19:31:12.300Z,3.38
2022-09-15T19:33:40.524Z,3.40
2022-09-15T19:36:27.368Z,3.47
2022-09-15T19:38:57.074Z,3.60
2022-09-15T19:41:25.936Z,3.20
2022-09-15T19:43:54.362Z,3.65
2022-09-15T19:46:26.088Z,3.55
2022-09-15T19:48:55.243Z,3.63
2022-09-15T19:51:23.703Z,3.65
2022-09-15T19:53:55.372Z,3.75
2022-09-15T19:56:26.758Z,3.90
2022-09-15T19:58:56.406Z,3.97
2022-09-15T20:01:27.449Z,3.60
2022-09-15T20:03:57.093Z,3.88
2022-09-15T20:06:30.258Z,3.85
2022-09-15T20:09:00.969Z,3.83
2022-09-15T20:11:30.205Z,4.28
2022-09-15T20:13:58.782Z,3.63
2022-09-15T20:16:28.945Z,4.30
2022-09-15T20:18:57.365Z,4.10
2022-09-15T20:21:46.270Z,4.07
2022-09-15T20:24:16.566Z,4.10
2022-09-15T20:26:45.102Z,3.85
2022-09-15T20:29:13.673Z,3.95
2022-09-15T20:31:44.049Z,3.70
2022-09-15T20:34:12.121Z,3.88
2022-09-15T20:36:40.368Z,3.88
2022-09-15T20:39:13.495Z,4.20
2022-09-15T20:41:44.898Z,4.13
2022-09-15T20:44:14.160Z,3.70
2022-09-15T20:46:44.153Z,3.70
2022-09-15T20:49:13.498Z,3.58
2022-09-15T20:51:41.683Z,3.53
2022-09-15T20:54:11.376Z,3.72
2022-09-15T20:56:39.419Z,4.38
2022-09-15T20:59:10.801Z,4.35
2022-09-15T21:01:40.609Z,4.22
2022-09-15T21:04:11.485Z,4.15
2022-09-15T21:06:40.641Z,4.20
2022-09-15T21:09:09.303Z,4.50
2022-09-15T21:11:37.843Z,4.63
2022-09-15T21:14:06.292Z,4.57
2022-09-15T21:16:35.310Z,4.03
2022-09-15T21:19:03.897Z,4.25
2022-09-15T21:21:34.366Z,4.55
2022-09-15T21:24:04.928Z,4.45
2022-09-15T21:26:35.312Z,4.15
2022-09-15T21:29:04.239Z,4.20
2022-09-15T21:31:34.554Z,4.25
2022-09-15T21:34:03.042Z,4.47
2022-09-15T21:36:34.028Z,4.28
2022-09-15T21:39:03.249Z,4.50
2022-09-15T21:41:31.333Z,4.40
2022-09-15T21:44:01.315Z,4.63
2022-09-15T21:46:30.726Z,4.43
2022-09-15T21:49:00.216Z,4.07
2022-09-15T21:51:30.904Z,4.40
2022-09-15T21:54:01.112Z,4.43
2022-09-15T21:56:31.319Z,4.82
2022-09-15T21:58:59.590Z,4.93
2022-09-15T22:01:30.328Z,4.35
2022-09-15T22:03:59.659Z,4.40
2022-09-15T22:06:32.155Z,5.28
2022-09-15T22:09:03.297Z,4.75
2022-09-15T22:11:31.557Z,5.13
2022-09-15T22:13:59.858Z,4.57
2022-09-15T22:16:28.534Z,5.30
2022-09-15T22:18:57.129Z,4.97
2022-09-15T22:21:27.662Z,4.90
2022-09-15T22:23:57.666Z,4.70
2022-09-15T22:26:29.013Z,5.10
2022-09-15T22:28:57.553Z,5.18
2022-09-15T22:31:27.565Z,4.75
2022-09-15T22:33:56.827Z,4.90
2022-09-15T22:36:29.661Z,5.05
2022-09-15T22:39:04.595Z,4.63
2022-09-15T22:41:36.099Z,5.78
2022-09-15T22:44:05.865Z,5.20
2022-09-15T22:46:34.083Z,5.30
2022-09-15T22:49:02.594Z,5.20
2022-09-15T22:51:30.878Z,5.82
2022-09-15T22:54:00.089Z,5.22
2022-09-15T22:56:28.198Z,5.22
2022-09-15T22:58:57.767Z,6.45
2022-09-15T23:01:28.193Z,5.97
2022-09-15T23:03:58.540Z,5.50
2022-09-15T23:06:28.389Z,6.60
2022-09-15T23:08:58.757Z,6.90
2022-09-15T23:11:28.297Z,6.40
2022-09-15T23:13:58.250Z,6.97
2022-09-15T23:16:27.041Z,7.35
2022-09-15T23:18:56.245Z,7.28
2022-09-15T23:21:24.459Z,6.72
2022-09-15T23:23:55.572Z,6.43
2022-09-15T23:26:25.630Z,7.78
2022-09-15T23:28:54.549Z,6.75
2022-09-15T23:31:24.469Z,6.95
2022-09-15T23:33:53.044Z,7.88
2022-09-15T23:36:21.298Z,6.93
2022-09-15T23:38:50.842Z,6.70
2022-09-15T23:41:20.192Z,6.60
2022-09-15T23:43:48.713Z,6.47
2022-09-15T23:46:17.060Z,6.15
2022-09-15T23:48:46.978Z,6.20
2022-09-15T23:51:15.310Z,6.20
2022-09-15T23:53:43.942Z,5.72
2022-09-15T23:56:12.851Z,5.82
2022-09-15T23:58:40.938Z,5.30
